sensor_id;sensor_type;location;lat;lon;timestamp;P1;durP1;ratioP1;P2;durP2;ratioP2
26686;SDS011;14298;50.900;4.648;2023-05-23T00:02:18;13.93;;;9.67;;
26686;SDS011;14298;50.900;4.648;2023-05-23T00:04:46;12.50;;;9.53;;
26686;SDS011;14298;50.900;4.648;2023-05-23T00:07:15;15.93;;;8.67;;
26686;SDS011;14298;50.900;4.648;2023-05-23T00:09:43;14.90;;;9.07;;
26686;SDS011;14298;50.900;4.648;2023-05-23T00:12:11;12.73;;;9.70;;
26686;SDS011;14298;50.900;4.648;2023-05-23T00:14:39;11.90;;;8.80;;
26686;SDS011;14298;50.900;4.648;2023-05-23T00:17:07;20.70;;;8.77;;
26686;SDS011;14298;50.900;4.648;2023-05-23T00:19:36;18.33;;;7.63;;
26686;SDS011;14298;50.900;4.648;2023-05-23T00:22:04;11.67;;;7.83;;
26686;SDS011;14298;50.900;4.648;2023-05-23T00:24:32;13.20;;;7.93;;
26686;SDS011;14298;50.900;4.648;2023-05-23T00:27:00;12.07;;;9.23;;
26686;SDS011;14298;50.900;4.648;2023-05-23T00:29:28;9.03;;;6.83;;
26686;SDS011;14298;50.900;4.648;2023-05-23T00:31:56;9.87;;;7.67;;
26686;SDS011;14298;50.900;4.648;2023-05-23T00:34:24;10.20;;;7.30;;
26686;SDS011;14298;50.900;4.648;2023-05-23T00:36:52;10.53;;;7.57;;
26686;SDS011;14298;50.900;4.648;2023-05-23T00:39:20;14.00;;;8.03;;
26686;SDS011;14298;50.900;4.648;2023-05-23T00:41:48;10.43;;;8.63;;
26686;SDS011;14298;50.900;4.648;2023-05-23T00:44:17;10.67;;;7.47;;
26686;SDS011;14298;50.900;4.648;2023-05-23T00:46:46;13.07;;;7.93;;
26686;SDS011;14298;50.900;4.648;2023-05-23T00:49:15;10.50;;;7.03;;
26686;SDS011;14298;50.900;4.648;2023-05-23T00:54:32;11.70;;;8.10;;
26686;SDS011;14298;50.900;4.648;2023-05-23T00:57:01;14.63;;;8.93;;
26686;SDS011;14298;50.900;4.648;2023-05-23T00:59:29;14.83;;;8.67;;
26686;SDS011;14298;50.900;4.648;2023-05-23T01:01:57;11.90;;;8.03;;
26686;SDS011;14298;50.900;4.648;2023-05-23T01:04:26;22.00;;;9.07;;
26686;SDS011;14298;50.900;4.648;2023-05-23T01:06:55;10.50;;;8.90;;
26686;SDS011;14298;50.900;4.648;2023-05-23T01:09:24;13.77;;;9.03;;
26686;SDS011;14298;50.900;4.648;2023-05-23T01:14:31;14.13;;;7.77;;
26686;SDS011;14298;50.900;4.648;2023-05-23T01:17:00;10.23;;;7.17;;
26686;SDS011;14298;50.900;4.648;2023-05-23T01:19:38;25.67;;;9.30;;
26686;SDS011;14298;50.900;4.648;2023-05-23T01:21:57;23.27;;;7.77;;
26686;SDS011;14298;50.900;4.648;2023-05-23T01:24:38;15.97;;;9.60;;
26686;SDS011;14298;50.900;4.648;2023-05-23T01:29:57;8.53;;;6.20;;
26686;SDS011;14298;50.900;4.648;2023-05-23T01:32:21;8.20;;;5.60;;
26686;SDS011;14298;50.900;4.648;2023-05-23T01:34:52;12.67;;;7.77;;
26686;SDS011;14298;50.900;4.648;2023-05-23T01:37:20;9.13;;;6.77;;
26686;SDS011;14298;50.900;4.648;2023-05-23T01:39:48;12.53;;;6.10;;
26686;SDS011;14298;50.900;4.648;2023-05-23T01:42:16;9.70;;;6.67;;
26686;SDS011;14298;50.900;4.648;2023-05-23T01:44:45;8.23;;;7.33;;
26686;SDS011;14298;50.900;4.648;2023-05-23T01:47:13;12.10;;;7.90;;
26686;SDS011;14298;50.900;4.648;2023-05-23T01:49:41;11.83;;;7.50;;
26686;SDS011;14298;50.900;4.648;2023-05-23T01:52:10;12.97;;;6.67;;
26686;SDS011;14298;50.900;4.648;2023-05-23T01:54:39;11.50;;;6.83;;
26686;SDS011;14298;50.900;4.648;2023-05-23T01:57:08;15.87;;;7.60;;
26686;SDS011;14298;50.900;4.648;2023-05-23T01:59:37;7.77;;;6.97;;
26686;SDS011;14298;50.900;4.648;2023-05-23T02:02:05;9.60;;;7.27;;
26686;SDS011;14298;50.900;4.648;2023-05-23T02:04:33;9.00;;;6.20;;
26686;SDS011;14298;50.900;4.648;2023-05-23T02:07:02;9.17;;;6.67;;
26686;SDS011;14298;50.900;4.648;2023-05-23T02:09:30;8.97;;;6.77;;
26686;SDS011;14298;50.900;4.648;2023-05-23T02:11:58;17.20;;;9.37;;
26686;SDS011;14298;50.900;4.648;2023-05-23T02:14:26;11.10;;;7.47;;
26686;SDS011;14298;50.900;4.648;2023-05-23T02:16:54;12.70;;;7.87;;
26686;SDS011;14298;50.900;4.648;2023-05-23T02:19:22;9.47;;;6.27;;
26686;SDS011;14298;50.900;4.648;2023-05-23T02:21:50;14.13;;;8.00;;
26686;SDS011;14298;50.900;4.648;2023-05-23T02:24:18;8.63;;;5.13;;
26686;SDS011;14298;50.900;4.648;2023-05-23T02:26:46;8.40;;;5.73;;
26686;SDS011;14298;50.900;4.648;2023-05-23T02:29:14;3.87;;;3.47;;
26686;SDS011;14298;50.900;4.648;2023-05-23T02:31:42;3.27;;;2.87;;
26686;SDS011;14298;50.900;4.648;2023-05-23T02:34:10;10.10;;;4.60;;
26686;SDS011;14298;50.900;4.648;2023-05-23T02:36:38;7.57;;;5.47;;
26686;SDS011;14298;50.900;4.648;2023-05-23T02:39:06;8.37;;;3.57;;
26686;SDS011;14298;50.900;4.648;2023-05-23T02:41:34;6.17;;;4.77;;
26686;SDS011;14298;50.900;4.648;2023-05-23T02:46:50;5.23;;;3.77;;
26686;SDS011;14298;50.900;4.648;2023-05-23T02:49:18;7.50;;;4.57;;
26686;SDS011;14298;50.900;4.648;2023-05-23T02:51:46;6.03;;;4.33;;
26686;SDS011;14298;50.900;4.648;2023-05-23T02:54:14;12.87;;;5.27;;
26686;SDS011;14298;50.900;4.648;2023-05-23T02:56:43;4.40;;;3.73;;
26686;SDS011;14298;50.900;4.648;2023-05-23T02:59:12;5.53;;;4.23;;
26686;SDS011;14298;50.900;4.648;2023-05-23T03:01:40;6.27;;;4.47;;
26686;SDS011;14298;50.900;4.648;2023-05-23T03:04:08;4.57;;;4.13;;
26686;SDS011;14298;50.900;4.648;2023-05-23T03:06:36;4.57;;;3.77;;
26686;SDS011;14298;50.900;4.648;2023-05-23T03:09:04;8.33;;;4.20;;
26686;SDS011;14298;50.900;4.648;2023-05-23T03:11:32;4.80;;;3.73;;
26686;SDS011;14298;50.900;4.648;2023-05-23T03:14:00;8.20;;;4.87;;
26686;SDS011;14298;50.900;4.648;2023-05-23T03:16:28;5.57;;;4.40;;
26686;SDS011;14298;50.900;4.648;2023-05-23T03:18:56;5.53;;;4.87;;
26686;SDS011;14298;50.900;4.648;2023-05-23T03:21:24;7.53;;;5.10;;
26686;SDS011;14298;50.900;4.648;2023-05-23T03:23:52;6.03;;;5.40;;
26686;SDS011;14298;50.900;4.648;2023-05-23T03:26:19;9.07;;;4.83;;
26686;SDS011;14298;50.900;4.648;2023-05-23T03:28:48;6.10;;;5.17;;
26686;SDS011;14298;50.900;4.648;2023-05-23T03:31:17;8.93;;;5.27;;
26686;SDS011;14298;50.900;4.648;2023-05-23T03:33:45;6.77;;;4.77;;
26686;SDS011;14298;50.900;4.648;2023-05-23T03:36:13;10.40;;;5.47;;
26686;SDS011;14298;50.900;4.648;2023-05-23T03:38:41;6.57;;;4.87;;
26686;SDS011;14298;50.900;4.648;2023-05-23T03:41:09;6.93;;;6.13;;
26686;SDS011;14298;50.900;4.648;2023-05-23T03:43:37;9.37;;;5.97;;
26686;SDS011;14298;50.900;4.648;2023-05-23T03:46:05;9.70;;;5.60;;
26686;SDS011;14298;50.900;4.648;2023-05-23T03:48:33;13.57;;;7.43;;
26686;SDS011;14298;50.900;4.648;2023-05-23T03:51:01;6.77;;;5.37;;
26686;SDS011;14298;50.900;4.648;2023-05-23T03:53:29;15.90;;;7.20;;
26686;SDS011;14298;50.900;4.648;2023-05-23T03:55:57;8.93;;;6.47;;
26686;SDS011;14298;50.900;4.648;2023-05-23T03:58:25;9.97;;;6.93;;
26686;SDS011;14298;50.900;4.648;2023-05-23T04:00:53;10.23;;;6.97;;
26686;SDS011;14298;50.900;4.648;2023-05-23T04:03:21;11.77;;;6.87;;
26686;SDS011;14298;50.900;4.648;2023-05-23T04:05:49;7.03;;;6.30;;
26686;SDS011;14298;50.900;4.648;2023-05-23T04:08:17;7.13;;;6.37;;
26686;SDS011;14298;50.900;4.648;2023-05-23T04:10:47;7.13;;;6.43;;
26686;SDS011;14298;50.900;4.648;2023-05-23T04:13:15;10.00;;;6.90;;
26686;SDS011;14298;50.900;4.648;2023-05-23T04:15:43;7.40;;;6.10;;
26686;SDS011;14298;50.900;4.648;2023-05-23T04:18:11;9.83;;;6.07;;
26686;SDS011;14298;50.900;4.648;2023-05-23T04:20:41;7.23;;;6.10;;
26686;SDS011;14298;50.900;4.648;2023-05-23T04:23:09;11.93;;;6.63;;
26686;SDS011;14298;50.900;4.648;2023-05-23T04:25:37;8.47;;;5.97;;
26686;SDS011;14298;50.900;4.648;2023-05-23T04:28:05;9.73;;;5.47;;
26686;SDS011;14298;50.900;4.648;2023-05-23T04:30:35;9.07;;;5.13;;
26686;SDS011;14298;50.900;4.648;2023-05-23T04:33:03;6.03;;;4.57;;
26686;SDS011;14298;50.900;4.648;2023-05-23T04:35:32;10.13;;;5.10;;
26686;SDS011;14298;50.900;4.648;2023-05-23T04:38:00;11.57;;;4.97;;
26686;SDS011;14298;50.900;4.648;2023-05-23T04:40:30;3.70;;;3.37;;
26686;SDS011;14298;50.900;4.648;2023-05-23T04:42:58;4.80;;;4.17;;
26686;SDS011;14298;50.900;4.648;2023-05-23T04:45:26;4.43;;;3.97;;
26686;SDS011;14298;50.900;4.648;2023-05-23T04:47:54;4.17;;;3.77;;
26686;SDS011;14298;50.900;4.648;2023-05-23T04:50:22;4.53;;;4.10;;
26686;SDS011;14298;50.900;4.648;2023-05-23T04:52:50;6.90;;;5.33;;
26686;SDS011;14298;50.900;4.648;2023-05-23T04:55:18;4.13;;;3.23;;
26686;SDS011;14298;50.900;4.648;2023-05-23T04:57:47;6.47;;;4.23;;
26686;SDS011;14298;50.900;4.648;2023-05-23T05:00:15;12.77;;;4.70;;
26686;SDS011;14298;50.900;4.648;2023-05-23T05:02:43;4.70;;;3.80;;
26686;SDS011;14298;50.900;4.648;2023-05-23T05:05:11;4.90;;;3.63;;
26686;SDS011;14298;50.900;4.648;2023-05-23T05:07:39;3.93;;;3.50;;
26686;SDS011;14298;50.900;4.648;2023-05-23T05:10:08;3.53;;;3.10;;
26686;SDS011;14298;50.900;4.648;2023-05-23T05:12:38;6.57;;;3.57;;
26686;SDS011;14298;50.900;4.648;2023-05-23T05:15:06;4.97;;;4.10;;
26686;SDS011;14298;50.900;4.648;2023-05-23T05:17:35;4.97;;;3.57;;
26686;SDS011;14298;50.900;4.648;2023-05-23T05:20:05;4.93;;;3.80;;
26686;SDS011;14298;50.900;4.648;2023-05-23T05:22:34;5.70;;;3.93;;
26686;SDS011;14298;50.900;4.648;2023-05-23T05:25:02;6.17;;;3.47;;
26686;SDS011;14298;50.900;4.648;2023-05-23T05:27:32;4.57;;;3.10;;
26686;SDS011;14298;50.900;4.648;2023-05-23T05:30:00;7.90;;;3.13;;
26686;SDS011;14298;50.900;4.648;2023-05-23T05:32:30;3.57;;;3.27;;
26686;SDS011;14298;50.900;4.648;2023-05-23T05:34:59;7.87;;;3.47;;
26686;SDS011;14298;50.900;4.648;2023-05-23T05:37:27;3.47;;;2.97;;
26686;SDS011;14298;50.900;4.648;2023-05-23T05:39:55;4.13;;;3.60;;
26686;SDS011;14298;50.900;4.648;2023-05-23T05:42:25;4.13;;;3.60;;
26686;SDS011;14298;50.900;4.648;2023-05-23T05:44:53;4.23;;;3.47;;
26686;SDS011;14298;50.900;4.648;2023-05-23T05:47:21;5.30;;;3.23;;
26686;SDS011;14298;50.900;4.648;2023-05-23T05:49:49;4.13;;;3.40;;
26686;SDS011;14298;50.900;4.648;2023-05-23T05:52:17;4.27;;;3.40;;
26686;SDS011;14298;50.900;4.648;2023-05-23T05:54:45;5.50;;;3.00;;
26686;SDS011;14298;50.900;4.648;2023-05-23T05:57:13;5.23;;;3.93;;
26686;SDS011;14298;50.900;4.648;2023-05-23T05:59:41;8.90;;;4.37;;
26686;SDS011;14298;50.900;4.648;2023-05-23T06:02:09;3.90;;;3.50;;
26686;SDS011;14298;50.900;4.648;2023-05-23T06:04:37;5.67;;;3.83;;
26686;SDS011;14298;50.900;4.648;2023-05-23T06:07:05;3.97;;;3.33;;
26686;SDS011;14298;50.900;4.648;2023-05-23T06:09:33;3.53;;;3.10;;
26686;SDS011;14298;50.900;4.648;2023-05-23T06:12:02;6.07;;;4.33;;
26686;SDS011;14298;50.900;4.648;2023-05-23T06:14:30;8.40;;;4.93;;
26686;SDS011;14298;50.900;4.648;2023-05-23T06:16:58;6.93;;;4.67;;
26686;SDS011;14298;50.900;4.648;2023-05-23T06:19:25;6.13;;;3.80;;
26686;SDS011;14298;50.900;4.648;2023-05-23T06:21:53;5.60;;;4.60;;
26686;SDS011;14298;50.900;4.648;2023-05-23T06:24:21;6.30;;;4.47;;
26686;SDS011;14298;50.900;4.648;2023-05-23T06:26:49;9.33;;;4.67;;
26686;SDS011;14298;50.900;4.648;2023-05-23T06:29:17;9.37;;;4.67;;
26686;SDS011;14298;50.900;4.648;2023-05-23T06:31:45;8.53;;;4.30;;
26686;SDS011;14298;50.900;4.648;2023-05-23T06:34:15;5.93;;;4.53;;
26686;SDS011;14298;50.900;4.648;2023-05-23T06:36:43;4.87;;;3.40;;
26686;SDS011;14298;50.900;4.648;2023-05-23T06:39:13;8.30;;;4.77;;
26686;SDS011;14298;50.900;4.648;2023-05-23T06:41:41;8.60;;;3.70;;
26686;SDS011;14298;50.900;4.648;2023-05-23T06:46:57;9.13;;;4.30;;
26686;SDS011;14298;50.900;4.648;2023-05-23T06:49:25;3.97;;;3.57;;
26686;SDS011;14298;50.900;4.648;2023-05-23T06:51:53;4.37;;;3.67;;
26686;SDS011;14298;50.900;4.648;2023-05-23T06:54:21;7.20;;;3.90;;
26686;SDS011;14298;50.900;4.648;2023-05-23T06:56:49;4.77;;;3.60;;
26686;SDS011;14298;50.900;4.648;2023-05-23T06:59:17;9.97;;;3.03;;
26686;SDS011;14298;50.900;4.648;2023-05-23T07:01:45;3.93;;;2.90;;
26686;SDS011;14298;50.900;4.648;2023-05-23T07:04:13;9.43;;;3.93;;
26686;SDS011;14298;50.900;4.648;2023-05-23T07:06:41;3.07;;;2.77;;
26686;SDS011;14298;50.900;4.648;2023-05-23T07:09:09;5.27;;;3.03;;
26686;SDS011;14298;50.900;4.648;2023-05-23T07:11:39;6.83;;;2.63;;
26686;SDS011;14298;50.900;4.648;2023-05-23T07:14:07;7.53;;;3.17;;
26686;SDS011;14298;50.900;4.648;2023-05-23T07:16:35;2.43;;;2.20;;
26686;SDS011;14298;50.900;4.648;2023-05-23T07:19:03;3.63;;;2.20;;
26686;SDS011;14298;50.900;4.648;2023-05-23T07:21:31;5.23;;;2.30;;
26686;SDS011;14298;50.900;4.648;2023-05-23T07:23:59;5.10;;;2.47;;
26686;SDS011;14298;50.900;4.648;2023-05-23T07:26:27;5.53;;;2.00;;
26686;SDS011;14298;50.900;4.648;2023-05-23T07:28:55;6.23;;;1.83;;
26686;SDS011;14298;50.900;4.648;2023-05-23T07:31:23;1.43;;;1.23;;
26686;SDS011;14298;50.900;4.648;2023-05-23T07:33:51;5.33;;;1.30;;
26686;SDS011;14298;50.900;4.648;2023-05-23T07:36:19;6.83;;;1.30;;
26686;SDS011;14298;50.900;4.648;2023-05-23T07:38:48;1.30;;;1.20;;
26686;SDS011;14298;50.900;4.648;2023-05-23T07:41:16;2.53;;;1.47;;
26686;SDS011;14298;50.900;4.648;2023-05-23T07:43:44;1.43;;;1.27;;
26686;SDS011;14298;50.900;4.648;2023-05-23T07:46:12;2.87;;;1.80;;
26686;SDS011;14298;50.900;4.648;2023-05-23T07:48:40;3.67;;;1.53;;
26686;SDS011;14298;50.900;4.648;2023-05-23T07:51:08;3.77;;;2.07;;
26686;SDS011;14298;50.900;4.648;2023-05-23T07:53:36;2.20;;;1.73;;
26686;SDS011;14298;50.900;4.648;2023-05-23T07:56:05;2.43;;;2.13;;
26686;SDS011;14298;50.900;4.648;2023-05-23T07:58:33;2.17;;;1.63;;
26686;SDS011;14298;50.900;4.648;2023-05-23T08:01:02;8.33;;;1.63;;
26686;SDS011;14298;50.900;4.648;2023-05-23T08:03:30;2.37;;;1.87;;
26686;SDS011;14298;50.900;4.648;2023-05-23T08:05:58;3.37;;;2.00;;
26686;SDS011;14298;50.900;4.648;2023-05-23T08:08:26;1.77;;;1.50;;
26686;SDS011;14298;50.900;4.648;2023-05-23T08:10:54;3.10;;;1.47;;
26686;SDS011;14298;50.900;4.648;2023-05-23T08:13:22;2.97;;;1.97;;
26686;SDS011;14298;50.900;4.648;2023-05-23T08:15:50;2.57;;;1.90;;
26686;SDS011;14298;50.900;4.648;2023-05-23T08:18:18;1.33;;;1.23;;
26686;SDS011;14298;50.900;4.648;2023-05-23T08:20:46;1.37;;;1.17;;
26686;SDS011;14298;50.900;4.648;2023-05-23T08:23:14;6.77;;;2.27;;
26686;SDS011;14298;50.900;4.648;2023-05-23T08:25:43;8.03;;;1.93;;
26686;SDS011;14298;50.900;4.648;2023-05-23T08:28:11;3.13;;;2.07;;
26686;SDS011;14298;50.900;4.648;2023-05-23T08:30:39;5.93;;;1.93;;
26686;SDS011;14298;50.900;4.648;2023-05-23T08:33:08;2.50;;;1.63;;
26686;SDS011;14298;50.900;4.648;2023-05-23T08:35:36;5.40;;;2.53;;
26686;SDS011;14298;50.900;4.648;2023-05-23T08:38:05;2.07;;;1.87;;
26686;SDS011;14298;50.900;4.648;2023-05-23T08:40:35;4.20;;;1.87;;
26686;SDS011;14298;50.900;4.648;2023-05-23T08:45:56;4.43;;;2.37;;
26686;SDS011;14298;50.900;4.648;2023-05-23T08:48:24;2.43;;;2.23;;
26686;SDS011;14298;50.900;4.648;2023-05-23T08:50:53;6.53;;;3.03;;
26686;SDS011;14298;50.900;4.648;2023-05-23T08:53:21;2.53;;;1.83;;
26686;SDS011;14298;50.900;4.648;2023-05-23T08:55:50;4.43;;;2.47;;
26686;SDS011;14298;50.900;4.648;2023-05-23T08:58:19;2.50;;;2.17;;
26686;SDS011;14298;50.900;4.648;2023-05-23T09:00:47;2.97;;;1.83;;
26686;SDS011;14298;50.900;4.648;2023-05-23T09:03:16;3.60;;;1.93;;
26686;SDS011;14298;50.900;4.648;2023-05-23T09:05:44;3.67;;;2.63;;
26686;SDS011;14298;50.900;4.648;2023-05-23T09:08:12;9.00;;;2.80;;
26686;SDS011;14298;50.900;4.648;2023-05-23T09:10:41;2.37;;;1.83;;
26686;SDS011;14298;50.900;4.648;2023-05-23T09:13:09;3.43;;;2.33;;
26686;SDS011;14298;50.900;4.648;2023-05-23T09:15:37;2.50;;;1.67;;
26686;SDS011;14298;50.900;4.648;2023-05-23T09:18:05;4.20;;;2.10;;
26686;SDS011;14298;50.900;4.648;2023-05-23T09:20:33;9.83;;;2.43;;
26686;SDS011;14298;50.900;4.648;2023-05-23T09:23:04;5.03;;;2.80;;
26686;SDS011;14298;50.900;4.648;2023-05-23T09:25:33;4.37;;;1.97;;
26686;SDS011;14298;50.900;4.648;2023-05-23T09:28:01;5.63;;;1.83;;
26686;SDS011;14298;50.900;4.648;2023-05-23T09:30:30;6.63;;;1.80;;
26686;SDS011;14298;50.900;4.648;2023-05-23T09:33:00;3.73;;;1.93;;
26686;SDS011;14298;50.900;4.648;2023-05-23T09:35:28;2.30;;;1.83;;
26686;SDS011;14298;50.900;4.648;2023-05-23T09:37:56;2.77;;;1.80;;
26686;SDS011;14298;50.900;4.648;2023-05-23T09:40:28;3.50;;;1.47;;
26686;SDS011;14298;50.900;4.648;2023-05-23T09:43:01;2.30;;;1.63;;
26686;SDS011;14298;50.900;4.648;2023-05-23T09:45:30;3.63;;;1.67;;
26686;SDS011;14298;50.900;4.648;2023-05-23T09:47:58;1.33;;;1.17;;
26686;SDS011;14298;50.900;4.648;2023-05-23T09:50:31;2.70;;;1.80;;
26686;SDS011;14298;50.900;4.648;2023-05-23T09:52:59;4.97;;;2.30;;
26686;SDS011;14298;50.900;4.648;2023-05-23T09:55:27;3.57;;;2.63;;
26686;SDS011;14298;50.900;4.648;2023-05-23T09:57:55;1.90;;;1.50;;
26686;SDS011;14298;50.900;4.648;2023-05-23T10:00:25;2.57;;;1.30;;
26686;SDS011;14298;50.900;4.648;2023-05-23T10:05:29;2.60;;;2.33;;
26686;SDS011;14298;50.900;4.648;2023-05-23T10:08:03;3.33;;;1.77;;
26686;SDS011;14298;50.900;4.648;2023-05-23T10:10:27;9.13;;;1.73;;
26686;SDS011;14298;50.900;4.648;2023-05-23T10:12:55;8.03;;;1.87;;
26686;SDS011;14298;50.900;4.648;2023-05-23T10:15:25;1.77;;;1.53;;
26686;SDS011;14298;50.900;4.648;2023-05-23T10:20:33;1.37;;;1.27;;
26686;SDS011;14298;50.900;4.648;2023-05-23T10:23:02;1.30;;;1.20;;
26686;SDS011;14298;50.900;4.648;2023-05-23T10:25:31;2.00;;;1.80;;
26686;SDS011;14298;50.900;4.648;2023-05-23T10:28:01;2.03;;;1.80;;
26686;SDS011;14298;50.900;4.648;2023-05-23T10:30:29;2.07;;;1.57;;
26686;SDS011;14298;50.900;4.648;2023-05-23T10:32:57;5.10;;;2.27;;
26686;SDS011;14298;50.900;4.648;2023-05-23T10:38:20;1.70;;;1.53;;
26686;SDS011;14298;50.900;4.648;2023-05-23T10:43:18;3.63;;;1.73;;
26686;SDS011;14298;50.900;4.648;2023-05-23T10:45:45;1.77;;;1.67;;
26686;SDS011;14298;50.900;4.648;2023-05-23T10:51:02;1.80;;;1.53;;
26686;SDS011;14298;50.900;4.648;2023-05-23T10:53:31;1.87;;;1.60;;
26686;SDS011;14298;50.900;4.648;2023-05-23T10:56:00;0.87;;;0.83;;
26686;SDS011;14298;50.900;4.648;2023-05-23T10:58:29;1.83;;;1.23;;
26686;SDS011;14298;50.900;4.648;2023-05-23T11:01:01;1.47;;;1.37;;
26686;SDS011;14298;50.900;4.648;2023-05-23T11:03:34;2.53;;;1.47;;
26686;SDS011;14298;50.900;4.648;2023-05-23T11:06:02;2.47;;;1.73;;
26686;SDS011;14298;50.900;4.648;2023-05-23T11:08:37;1.77;;;1.37;;
26686;SDS011;14298;50.900;4.648;2023-05-23T11:11:07;2.20;;;1.60;;
26686;SDS011;14298;50.900;4.648;2023-05-23T11:13:54;1.13;;;1.03;;
26686;SDS011;14298;50.900;4.648;2023-05-23T11:16:28;1.47;;;1.37;;
26686;SDS011;14298;50.900;4.648;2023-05-23T11:19:09;1.90;;;1.53;;
26686;SDS011;14298;50.900;4.648;2023-05-23T11:21:21;1.60;;;1.50;;
26686;SDS011;14298;50.900;4.648;2023-05-23T11:23:52;1.47;;;1.37;;
26686;SDS011;14298;50.900;4.648;2023-05-23T11:26:29;1.13;;;0.90;;
26686;SDS011;14298;50.900;4.648;2023-05-23T11:28:58;3.10;;;2.00;;
26686;SDS011;14298;50.900;4.648;2023-05-23T11:31:26;1.87;;;1.77;;
26686;SDS011;14298;50.900;4.648;2023-05-23T11:33:54;1.67;;;1.53;;
26686;SDS011;14298;50.900;4.648;2023-05-23T11:36:22;2.67;;;2.03;;
26686;SDS011;14298;50.900;4.648;2023-05-23T11:38:51;4.87;;;1.77;;
26686;SDS011;14298;50.900;4.648;2023-05-23T11:41:19;2.13;;;1.93;;
26686;SDS011;14298;50.900;4.648;2023-05-23T11:43:51;1.83;;;1.53;;
26686;SDS011;14298;50.900;4.648;2023-05-23T11:46:19;2.07;;;1.70;;
26686;SDS011;14298;50.900;4.648;2023-05-23T11:48:47;2.20;;;1.97;;
26686;SDS011;14298;50.900;4.648;2023-05-23T11:51:15;1.07;;;1.00;;
26686;SDS011;14298;50.900;4.648;2023-05-23T11:53:43;2.50;;;1.23;;
26686;SDS011;14298;50.900;4.648;2023-05-23T11:56:13;4.33;;;1.30;;
26686;SDS011;14298;50.900;4.648;2023-05-23T11:58:42;4.73;;;1.57;;
26686;SDS011;14298;50.900;4.648;2023-05-23T12:01:11;1.97;;;1.57;;
26686;SDS011;14298;50.900;4.648;2023-05-23T12:03:46;1.13;;;1.03;;
26686;SDS011;14298;50.900;4.648;2023-05-23T12:06:14;4.63;;;1.80;;
26686;SDS011;14298;50.900;4.648;2023-05-23T12:08:42;1.40;;;1.13;;
26686;SDS011;14298;50.900;4.648;2023-05-23T12:11:10;2.33;;;1.57;;
26686;SDS011;14298;50.900;4.648;2023-05-23T12:13:39;3.30;;;1.13;;
26686;SDS011;14298;50.900;4.648;2023-05-23T12:16:08;16.47;;;1.20;;
26686;SDS011;14298;50.900;4.648;2023-05-23T12:18:37;1.10;;;1.10;;
26686;SDS011;14298;50.900;4.648;2023-05-23T12:21:05;15.47;;;1.70;;
26686;SDS011;14298;50.900;4.648;2023-05-23T12:23:35;4.40;;;1.90;;
26686;SDS011;14298;50.900;4.648;2023-05-23T12:26:03;2.17;;;1.17;;
26686;SDS011;14298;50.900;4.648;2023-05-23T12:28:39;2.27;;;1.33;;
26686;SDS011;14298;50.900;4.648;2023-05-23T12:31:07;1.63;;;1.53;;
26686;SDS011;14298;50.900;4.648;2023-05-23T12:33:36;1.40;;;1.30;;
26686;SDS011;14298;50.900;4.648;2023-05-23T12:36:02;4.57;;;1.83;;
26686;SDS011;14298;50.900;4.648;2023-05-23T12:38:31;1.50;;;1.23;;
26686;SDS011;14298;50.900;4.648;2023-05-23T12:41:10;1.20;;;0.93;;
26686;SDS011;14298;50.900;4.648;2023-05-23T12:43:39;5.17;;;1.40;;
26686;SDS011;14298;50.900;4.648;2023-05-23T12:46:07;2.60;;;1.33;;
26686;SDS011;14298;50.900;4.648;2023-05-23T12:48:35;2.67;;;1.60;;
26686;SDS011;14298;50.900;4.648;2023-05-23T12:51:03;3.93;;;1.80;;
26686;SDS011;14298;50.900;4.648;2023-05-23T12:53:32;4.27;;;1.43;;
26686;SDS011;14298;50.900;4.648;2023-05-23T12:55:59;1.43;;;1.10;;
26686;SDS011;14298;50.900;4.648;2023-05-23T12:58:27;3.03;;;1.50;;
26686;SDS011;14298;50.900;4.648;2023-05-23T13:00:56;4.37;;;1.43;;
26686;SDS011;14298;50.900;4.648;2023-05-23T13:03:24;1.13;;;1.00;;
26686;SDS011;14298;50.900;4.648;2023-05-23T13:05:52;3.17;;;1.50;;
26686;SDS011;14298;50.900;4.648;2023-05-23T13:08:20;1.67;;;1.10;;
26686;SDS011;14298;50.900;4.648;2023-05-23T13:10:49;2.23;;;1.57;;
26686;SDS011;14298;50.900;4.648;2023-05-23T13:13:17;2.00;;;1.43;;
26686;SDS011;14298;50.900;4.648;2023-05-23T13:15:45;3.23;;;1.30;;
26686;SDS011;14298;50.900;4.648;2023-05-23T13:18:13;2.80;;;1.60;;
26686;SDS011;14298;50.900;4.648;2023-05-23T13:20:41;6.53;;;1.63;;
26686;SDS011;14298;50.900;4.648;2023-05-23T13:23:09;4.57;;;1.50;;
26686;SDS011;14298;50.900;4.648;2023-05-23T13:25:37;1.07;;;1.07;;
26686;SDS011;14298;50.900;4.648;2023-05-23T13:28:05;2.87;;;1.70;;
26686;SDS011;14298;50.900;4.648;2023-05-23T13:30:33;4.07;;;1.70;;
26686;SDS011;14298;50.900;4.648;2023-05-23T13:33:01;1.73;;;1.30;;
26686;SDS011;14298;50.900;4.648;2023-05-23T13:35:29;10.20;;;1.17;;
26686;SDS011;14298;50.900;4.648;2023-05-23T13:37:57;1.67;;;1.27;;
26686;SDS011;14298;50.900;4.648;2023-05-23T13:40:25;5.60;;;1.93;;
26686;SDS011;14298;50.900;4.648;2023-05-23T13:42:53;1.57;;;1.47;;
26686;SDS011;14298;50.900;4.648;2023-05-23T13:45:21;3.47;;;1.47;;
26686;SDS011;14298;50.900;4.648;2023-05-23T13:47:49;4.77;;;1.53;;
26686;SDS011;14298;50.900;4.648;2023-05-23T13:50:17;5.33;;;1.80;;
26686;SDS011;14298;50.900;4.648;2023-05-23T13:52:46;3.77;;;1.33;;
26686;SDS011;14298;50.900;4.648;2023-05-23T13:55:14;1.43;;;1.33;;
26686;SDS011;14298;50.900;4.648;2023-05-23T13:57:43;1.27;;;1.17;;
26686;SDS011;14298;50.900;4.648;2023-05-23T14:00:11;3.93;;;1.67;;
26686;SDS011;14298;50.900;4.648;2023-05-23T14:02:40;3.73;;;1.43;;
26686;SDS011;14298;50.900;4.648;2023-05-23T14:05:08;2.40;;;1.20;;
26686;SDS011;14298;50.900;4.648;2023-05-23T14:07:36;5.23;;;1.23;;
26686;SDS011;14298;50.900;4.648;2023-05-23T14:10:05;2.33;;;1.13;;
26686;SDS011;14298;50.900;4.648;2023-05-23T14:12:33;1.80;;;0.80;;
26686;SDS011;14298;50.900;4.648;2023-05-23T14:17:48;1.30;;;1.20;;
26686;SDS011;14298;50.900;4.648;2023-05-23T14:20:18;1.77;;;1.07;;
26686;SDS011;14298;50.900;4.648;2023-05-23T14:22:46;1.70;;;1.37;;
26686;SDS011;14298;50.900;4.648;2023-05-23T14:25:14;6.77;;;1.80;;
26686;SDS011;14298;50.900;4.648;2023-05-23T14:27:42;1.67;;;1.20;;
26686;SDS011;14298;50.900;4.648;2023-05-23T14:30:10;5.23;;;1.63;;
26686;SDS011;14298;50.900;4.648;2023-05-23T14:32:38;3.53;;;1.80;;
26686;SDS011;14298;50.900;4.648;2023-05-23T14:35:08;3.07;;;1.83;;
26686;SDS011;14298;50.900;4.648;2023-05-23T14:37:37;4.03;;;1.13;;
26686;SDS011;14298;50.900;4.648;2023-05-23T14:40:05;4.43;;;1.53;;
26686;SDS011;14298;50.900;4.648;2023-05-23T14:42:35;2.00;;;1.50;;
26686;SDS011;14298;50.900;4.648;2023-05-23T14:45:03;2.90;;;0.90;;
26686;SDS011;14298;50.900;4.648;2023-05-23T14:47:32;2.90;;;1.47;;
26686;SDS011;14298;50.900;4.648;2023-05-23T14:50:00;2.40;;;1.63;;
26686;SDS011;14298;50.900;4.648;2023-05-23T14:52:28;2.57;;;1.20;;
26686;SDS011;14298;50.900;4.648;2023-05-23T14:54:56;2.70;;;1.20;;
26686;SDS011;14298;50.900;4.648;2023-05-23T14:57:24;0.83;;;0.83;;
26686;SDS011;14298;50.900;4.648;2023-05-23T14:59:52;1.57;;;1.07;;
26686;SDS011;14298;50.900;4.648;2023-05-23T15:02:20;6.73;;;1.70;;
26686;SDS011;14298;50.900;4.648;2023-05-23T15:04:48;4.47;;;1.40;;
26686;SDS011;14298;50.900;4.648;2023-05-23T15:07:16;2.87;;;1.50;;
26686;SDS011;14298;50.900;4.648;2023-05-23T15:09:44;1.80;;;1.27;;
26686;SDS011;14298;50.900;4.648;2023-05-23T15:12:13;2.13;;;1.73;;
26686;SDS011;14298;50.900;4.648;2023-05-23T15:14:41;3.00;;;1.20;;
26686;SDS011;14298;50.900;4.648;2023-05-23T15:17:09;3.00;;;1.40;;
26686;SDS011;14298;50.900;4.648;2023-05-23T15:19:39;1.70;;;0.90;;
26686;SDS011;14298;50.900;4.648;2023-05-23T15:22:08;4.73;;;0.83;;
26686;SDS011;14298;50.900;4.648;2023-05-23T15:24:36;4.57;;;1.90;;
26686;SDS011;14298;50.900;4.648;2023-05-23T15:27:04;2.53;;;1.57;;